sensor_id;sensor_type;location;lat;lon;timestamp;pressure;altitude;pressure_sealevel;temperature;humidity
74561;BME280;62979;55.720;37.606;2023-06-10T00:01:42;100164.59;;;16.72;41.55
74561;BME280;62979;55.720;37.606;2023-06-10T00:04:12;100160.31;;;16.69;41.33
74561;BME280;62979;55.720;37.606;2023-06-10T00:06:40;100150.81;;;16.65;41.30
74561;BME280;62979;55.720;37.606;2023-06-10T00:09:07;100155.31;;;16.63;41.64
74561;BME280;62979;55.720;37.606;2023-06-10T00:11:37;100152.38;;;16.69;41.72
74561;BME280;62979;55.720;37.606;2023-06-10T00:14:04;100155.41;;;16.60;42.05
74561;BME280;62979;55.720;37.606;2023-06-10T00:16:31;100147.63;;;16.57;41.88
74561;BME280;62979;55.720;37.606;2023-06-10T00:18:59;100159.22;;;16.53;42.19
74561;BME280;62979;55.720;37.606;2023-06-10T00:21:28;100154.34;;;16.44;42.44
74561;BME280;62979;55.720;37.606;2023-06-10T00:23:55;100170.25;;;16.42;42.55
74561;BME280;62979;55.720;37.606;2023-06-10T00:26:23;100165.75;;;16.44;42.57
74561;BME280;62979;55.720;37.606;2023-06-10T00:28:52;100171.19;;;16.41;42.74
74561;BME280;62979;55.720;37.606;2023-06-10T00:31:19;100161.47;;;16.42;42.31
74561;BME280;62979;55.720;37.606;2023-06-10T00:33:46;100167.06;;;16.34;42.19
74561;BME280;62979;55.720;37.606;2023-06-10T00:36:13;100179.16;;;16.40;42.24
74561;BME280;62979;55.720;37.606;2023-06-10T00:38:40;100174.81;;;16.39;42.29
74561;BME280;62979;55.720;37.606;2023-06-10T00:41:07;100179.19;;;16.38;42.43
74561;BME280;62979;55.720;37.606;2023-06-10T00:43:34;100181.25;;;16.32;41.97
74561;BME280;62979;55.720;37.606;2023-06-10T00:46:02;100194.50;;;16.30;42.45
74561;BME280;62979;55.720;37.606;2023-06-10T00:48:29;100196.47;;;16.25;42.70
74561;BME280;62979;55.720;37.606;2023-06-10T00:50:57;100202.22;;;16.35;42.45
74561;BME280;62979;55.720;37.606;2023-06-10T00:53:24;100200.59;;;16.32;42.39
74561;BME280;62979;55.720;37.606;2023-06-10T00:55:53;100203.41;;;16.27;42.47
74561;BME280;62979;55.720;37.606;2023-06-10T00:58:20;100206.75;;;16.31;42.76
74561;BME280;62979;55.720;37.606;2023-06-10T01:00:48;100207.75;;;16.29;42.84
74561;BME280;62979;55.720;37.606;2023-06-10T01:03:16;100211.06;;;16.34;42.62
74561;BME280;62979;55.720;37.606;2023-06-10T01:05:44;100202.47;;;16.29;42.84
74561;BME280;62979;55.720;37.606;2023-06-10T01:08:17;100214.94;;;16.25;43.10
74561;BME280;62979;55.720;37.606;2023-06-10T01:10:55;100223.66;;;16.27;43.09
74561;BME280;62979;55.720;37.606;2023-06-10T01:13:27;100229.97;;;16.23;43.36
74561;BME280;62979;55.720;37.606;2023-06-10T01:15:57;100223.47;;;16.32;43.19
74561;BME280;62979;55.720;37.606;2023-06-10T01:18:31;100228.75;;;16.32;43.29
74561;BME280;62979;55.720;37.606;2023-06-10T01:20:58;100226.53;;;16.43;42.92
74561;BME280;62979;55.720;37.606;2023-06-10T01:23:27;100235.53;;;16.39;42.97
74561;BME280;62979;55.720;37.606;2023-06-10T01:25:57;100243.34;;;16.40;43.01
74561;BME280;62979;55.720;37.606;2023-06-10T01:28:31;100236.59;;;16.33;42.89
74561;BME280;62979;55.720;37.606;2023-06-10T01:31:09;100244.16;;;16.20;43.10
74561;BME280;62979;55.720;37.606;2023-06-10T01:33:43;100243.16;;;16.23;43.41
74561;BME280;62979;55.720;37.606;2023-06-10T01:36:15;100245.31;;;16.13;43.75
74561;BME280;62979;55.720;37.606;2023-06-10T01:38:46;100255.81;;;16.15;43.77
74561;BME280;62979;55.720;37.606;2023-06-10T01:41:16;100245.72;;;16.02;43.69
74561;BME280;62979;55.720;37.606;2023-06-10T01:43:45;100245.13;;;15.94;44.02
74561;BME280;62979;55.720;37.606;2023-06-10T01:46:12;100248.75;;;15.92;44.30
74561;BME280;62979;55.720;37.606;2023-06-10T01:48:41;100249.91;;;15.84;44.44
74561;BME280;62979;55.720;37.606;2023-06-10T01:51:08;100251.38;;;15.92;44.52
74561;BME280;62979;55.720;37.606;2023-06-10T01:53:35;100262.75;;;15.94;44.72
74561;BME280;62979;55.720;37.606;2023-06-10T01:56:03;100258.63;;;15.87;44.87
74561;BME280;62979;55.720;37.606;2023-06-10T01:58:31;100264.66;;;15.90;44.86
74561;BME280;62979;55.720;37.606;2023-06-10T02:00:58;100260.91;;;15.96;44.81
74561;BME280;62979;55.720;37.606;2023-06-10T02:03:25;100272.84;;;16.06;44.54
74561;BME280;62979;55.720;37.606;2023-06-10T02:05:52;100272.03;;;16.04;44.48
74561;BME280;62979;55.720;37.606;2023-06-10T02:08:19;100278.25;;;16.03;44.70
74561;BME280;62979;55.720;37.606;2023-06-10T02:10:46;100281.34;;;15.91;44.61
74561;BME280;62979;55.720;37.606;2023-06-10T02:13:14;100286.91;;;15.83;44.86
74561;BME280;62979;55.720;37.606;2023-06-10T02:15:41;100280.28;;;15.71;45.36
74561;BME280;62979;55.720;37.606;2023-06-10T02:18:08;100287.06;;;15.53;45.53
74561;BME280;62979;55.720;37.606;2023-06-10T02:20:35;100292.25;;;15.55;45.97
74561;BME280;62979;55.720;37.606;2023-06-10T02:23:02;100283.34;;;15.59;45.68
74561;BME280;62979;55.720;37.606;2023-06-10T02:25:30;100290.75;;;15.48;45.78
74561;BME280;62979;55.720;37.606;2023-06-10T02:27:56;100287.09;;;15.52;45.63
74561;BME280;62979;55.720;37.606;2023-06-10T02:30:25;100280.81;;;15.56;45.73
74561;BME280;62979;55.720;37.606;2023-06-10T02:32:51;100275.59;;;15.54;45.72
74561;BME280;62979;55.720;37.606;2023-06-10T02:35:18;100285.91;;;15.60;45.55
74561;BME280;62979;55.720;37.606;2023-06-10T02:37:45;100290.63;;;15.51;45.60
74561;BME280;62979;55.720;37.606;2023-06-10T02:40:12;100285.16;;;15.57;45.69
74561;BME280;62979;55.720;37.606;2023-06-10T02:42:39;100290.47;;;15.55;45.72
74561;BME280;62979;55.720;37.606;2023-06-10T02:45:07;100293.88;;;15.59;45.52
74561;BME280;62979;55.720;37.606;2023-06-10T02:47:40;100287.34;;;15.69;45.19
74561;BME280;62979;55.720;37.606;2023-06-10T02:50:08;100301.47;;;15.68;45.05
74561;BME280;62979;55.720;37.606;2023-06-10T02:52:35;100302.13;;;15.75;45.04
74561;BME280;62979;55.720;37.606;2023-06-10T02:55:02;100304.53;;;15.81;44.91
74561;BME280;62979;55.720;37.606;2023-06-10T02:57:29;100296.78;;;15.76;44.60
74561;BME280;62979;55.720;37.606;2023-06-10T02:59:56;100306.66;;;15.71;44.66
74561;BME280;62979;55.720;37.606;2023-06-10T03:02:23;100297.53;;;15.80;44.40
74561;BME280;62979;55.720;37.606;2023-06-10T03:04:55;100309.50;;;15.90;44.37
74561;BME280;62979;55.720;37.606;2023-06-10T03:07:22;100307.03;;;15.86;44.30
74561;BME280;62979;55.720;37.606;2023-06-10T03:09:49;100305.97;;;15.90;44.33
74561;BME280;62979;55.720;37.606;2023-06-10T03:12:16;100303.97;;;15.96;43.66
74561;BME280;62979;55.720;37.606;2023-06-10T03:14:44;100312.50;;;16.04;44.14
74561;BME280;62979;55.720;37.606;2023-06-10T03:17:10;100313.09;;;15.88;44.00
74561;BME280;62979;55.720;37.606;2023-06-10T03:19:37;100311.31;;;15.88;44.15
74561;BME280;62979;55.720;37.606;2023-06-10T03:22:10;100306.63;;;15.96;43.89
74561;BME280;62979;55.720;37.606;2023-06-10T03:24:37;100310.28;;;15.92;43.83
74561;BME280;62979;55.720;37.606;2023-06-10T03:27:06;100306.94;;;15.87;44.38
74561;BME280;62979;55.720;37.606;2023-06-10T03:29:34;100319.63;;;16.01;44.08
74561;BME280;62979;55.720;37.606;2023-06-10T03:32:01;100322.84;;;16.09;43.81
74561;BME280;62979;55.720;37.606;2023-06-10T03:34:28;100318.44;;;16.10;44.14
74561;BME280;62979;55.720;37.606;2023-06-10T03:36:56;100310.69;;;16.05;43.28
74561;BME280;62979;55.720;37.606;2023-06-10T03:39:26;100324.69;;;16.07;43.07
74561;BME280;62979;55.720;37.606;2023-06-10T03:41:54;100321.25;;;16.05;43.54
74561;BME280;62979;55.720;37.606;2023-06-10T03:44:21;100331.53;;;16.13;43.31
74561;BME280;62979;55.720;37.606;2023-06-10T03:46:48;100328.13;;;16.09;43.65
74561;BME280;62979;55.720;37.606;2023-06-10T03:49:15;100320.31;;;16.06;43.37
74561;BME280;62979;55.720;37.606;2023-06-10T03:51:42;100325.31;;;16.14;43.59
74561;BME280;62979;55.720;37.606;2023-06-10T03:54:09;100328.63;;;16.19;43.25
74561;BME280;62979;55.720;37.606;2023-06-10T03:56:38;100330.41;;;16.18;43.24
74561;BME280;62979;55.720;37.606;2023-06-10T03:59:05;100331.88;;;16.27;42.99
74561;BME280;62979;55.720;37.606;2023-06-10T04:01:32;100324.75;;;16.29;42.93
74561;BME280;62979;55.720;37.606;2023-06-10T04:04:00;100331.69;;;16.32;42.69
74561;BME280;62979;55.720;37.606;2023-06-10T04:06:27;100327.09;;;16.37;42.71
74561;BME280;62979;55.720;37.606;2023-06-10T04:08:55;100327.03;;;16.38;42.47
74561;BME280;62979;55.720;37.606;2023-06-10T04:11:22;100340.84;;;16.45;42.43
74561;BME280;62979;55.720;37.606;2023-06-10T04:13:51;100339.44;;;16.36;42.16
74561;BME280;62979;55.720;37.606;2023-06-10T04:16:18;100340.34;;;16.35;42.59
74561;BME280;62979;55.720;37.606;2023-06-10T04:18:47;100341.97;;;16.39;42.18
74561;BME280;62979;55.720;37.606;2023-06-10T04:21:13;100345.13;;;16.49;42.17
74561;BME280;62979;55.720;37.606;2023-06-10T04:23:40;100336.22;;;16.52;42.01
74561;BME280;62979;55.720;37.606;2023-06-10T04:26:07;100335.34;;;16.51;41.86
74561;BME280;62979;55.720;37.606;2023-06-10T04:28:36;100346.34;;;16.62;41.68
74561;BME280;62979;55.720;37.606;2023-06-10T04:31:04;100340.75;;;16.70;41.15
74561;BME280;62979;55.720;37.606;2023-06-10T04:33:31;100341.75;;;16.67;40.90
74561;BME280;62979;55.720;37.606;2023-06-10T04:35:58;100341.50;;;16.74;40.66
74561;BME280;62979;55.720;37.606;2023-06-10T04:38:25;100344.94;;;16.76;40.83
74561;BME280;62979;55.720;37.606;2023-06-10T04:40:52;100349.44;;;16.74;40.88
74561;BME280;62979;55.720;37.606;2023-06-10T04:43:19;100348.31;;;16.81;41.42
74561;BME280;62979;55.720;37.606;2023-06-10T04:45:46;100350.81;;;16.84;41.17
74561;BME280;62979;55.720;37.606;2023-06-10T04:48:14;100346.06;;;16.92;40.77
74561;BME280;62979;55.720;37.606;2023-06-10T04:50:41;100357.22;;;17.00;41.10
74561;BME280;62979;55.720;37.606;2023-06-10T04:53:08;100354.88;;;17.15;40.57
74561;BME280;62979;55.720;37.606;2023-06-10T04:55:35;100360.22;;;17.13;40.25
74561;BME280;62979;55.720;37.606;2023-06-10T04:58:02;100362.63;;;17.19;40.40
74561;BME280;62979;55.720;37.606;2023-06-10T05:00:29;100356.59;;;17.16;39.41
74561;BME280;62979;55.720;37.606;2023-06-10T05:02:56;100364.13;;;17.25;39.63
74561;BME280;62979;55.720;37.606;2023-06-10T05:05:24;100365.69;;;17.08;39.89
74561;BME280;62979;55.720;37.606;2023-06-10T05:07:51;100368.31;;;17.08;39.71
74561;BME280;62979;55.720;37.606;2023-06-10T05:10:18;100371.41;;;17.20;39.08
74561;BME280;62979;55.720;37.606;2023-06-10T05:12:45;100362.34;;;17.25;38.60
74561;BME280;62979;55.720;37.606;2023-06-10T05:15:12;100368.50;;;17.26;39.24
74561;BME280;62979;55.720;37.606;2023-06-10T05:17:39;100359.00;;;17.22;38.97
74561;BME280;62979;55.720;37.606;2023-06-10T05:20:06;100364.66;;;17.13;38.36
74561;BME280;62979;55.720;37.606;2023-06-10T05:22:35;100363.16;;;17.27;38.05
74561;BME280;62979;55.720;37.606;2023-06-10T05:25:03;100361.06;;;17.14;39.17
74561;BME280;62979;55.720;37.606;2023-06-10T05:27:31;100371.50;;;17.17;39.53
74561;BME280;62979;55.720;37.606;2023-06-10T05:29:58;100364.81;;;17.30;39.20
74561;BME280;62979;55.720;37.606;2023-06-10T05:32:24;100361.69;;;17.41;39.53
74561;BME280;62979;55.720;37.606;2023-06-10T05:34:51;100363.25;;;17.46;37.99
74561;BME280;62979;55.720;37.606;2023-06-10T05:37:18;100364.81;;;17.50;38.08
74561;BME280;62979;55.720;37.606;2023-06-10T05:39:46;100380.00;;;17.45;38.44
74561;BME280;62979;55.720;37.606;2023-06-10T05:42:13;100383.41;;;17.49;38.44
74561;BME280;62979;55.720;37.606;2023-06-10T05:44:40;100384.94;;;17.54;38.35
74561;BME280;62979;55.720;37.606;2023-06-10T05:47:07;100379.38;;;17.61;38.21
74561;BME280;62979;55.720;37.606;2023-06-10T05:49:34;100382.34;;;17.53;38.14
74561;BME280;62979;55.720;37.606;2023-06-10T05:52:01;100379.16;;;17.65;38.48
74561;BME280;62979;55.720;37.606;2023-06-10T05:54:28;100369.84;;;17.57;38.34
74561;BME280;62979;55.720;37.606;2023-06-10T05:56:56;100380.75;;;17.69;38.54
74561;BME280;62979;55.720;37.606;2023-06-10T05:59:23;100377.78;;;17.77;38.48
74561;BME280;62979;55.720;37.606;2023-06-10T06:01:50;100379.28;;;17.84;38.18
74561;BME280;62979;55.720;37.606;2023-06-10T06:04:17;100385.88;;;17.94;37.78
74561;BME280;62979;55.720;37.606;2023-06-10T06:06:44;100380.34;;;17.80;37.94
74561;BME280;62979;55.720;37.606;2023-06-10T06:09:10;100394.63;;;17.96;38.19
74561;BME280;62979;55.720;37.606;2023-06-10T06:11:38;100390.47;;;17.91;38.08
74561;BME280;62979;55.720;37.606;2023-06-10T06:14:06;100376.88;;;17.99;37.75
74561;BME280;62979;55.720;37.606;2023-06-10T06:16:33;100392.50;;;18.05;37.91
74561;BME280;62979;55.720;37.606;2023-06-10T06:19:00;100391.56;;;18.06;37.56
74561;BME280;62979;55.720;37.606;2023-06-10T06:21:27;100392.72;;;18.00;37.19
74561;BME280;62979;55.720;37.606;2023-06-10T06:23:54;100395.91;;;18.07;37.69
74561;BME280;62979;55.720;37.606;2023-06-10T06:26:20;100398.84;;;18.01;38.99
74561;BME280;62979;55.720;37.606;2023-06-10T06:28:47;100399.56;;;18.25;38.01
74561;BME280;62979;55.720;37.606;2023-06-10T06:31:16;100395.28;;;18.41;37.11
74561;BME280;62979;55.720;37.606;2023-06-10T06:33:43;100396.00;;;18.45;37.28
74561;BME280;62979;55.720;37.606;2023-06-10T06:36:10;100396.00;;;18.45;37.52
74561;BME280;62979;55.720;37.606;2023-06-10T06:38:36;100403.88;;;18.65;36.78
74561;BME280;62979;55.720;37.606;2023-06-10T06:41:04;100400.78;;;18.55;35.83
74561;BME280;62979;55.720;37.606;2023-06-10T06:43:32;100396.13;;;18.60;36.06
74561;BME280;62979;55.720;37.606;2023-06-10T06:45:59;100413.19;;;18.74;36.25
74561;BME280;62979;55.720;37.606;2023-06-10T06:48:27;100414.34;;;19.06;35.68
74561;BME280;62979;55.720;37.606;2023-06-10T06:50:54;100416.34;;;19.01;34.62
74561;BME280;62979;55.720;37.606;2023-06-10T06:53:24;100426.59;;;18.90;34.86
74561;BME280;62979;55.720;37.606;2023-06-10T06:55:50;100421.66;;;18.82;35.37
74561;BME280;62979;55.720;37.606;2023-06-10T06:58:17;100419.91;;;18.83;35.22
74561;BME280;62979;55.720;37.606;2023-06-10T07:00:44;100415.66;;;18.97;35.23
74561;BME280;62979;55.720;37.606;2023-06-10T07:03:11;100415.75;;;19.13;35.05
74561;BME280;62979;55.720;37.606;2023-06-10T07:05:39;100421.06;;;19.13;35.83
74561;BME280;62979;55.720;37.606;2023-06-10T07:08:06;100416.94;;;19.08;35.80
74561;BME280;62979;55.720;37.606;2023-06-10T07:10:33;100423.06;;;19.27;34.80
74561;BME280;62979;55.720;37.606;2023-06-10T07:13:00;100425.16;;;19.38;35.27
74561;BME280;62979;55.720;37.606;2023-06-10T07:15:28;100417.22;;;19.55;34.40
74561;BME280;62979;55.720;37.606;2023-06-10T07:17:55;100428.53;;;19.78;34.05
74561;BME280;62979;55.720;37.606;2023-06-10T07:20:22;100419.66;;;19.60;33.66
74561;BME280;62979;55.720;37.606;2023-06-10T07:22:51;100423.56;;;19.53;33.75
74561;BME280;62979;55.720;37.606;2023-06-10T07:25:18;100420.19;;;19.32;34.38
74561;BME280;62979;55.720;37.606;2023-06-10T07:27:44;100426.84;;;19.21;34.17
74561;BME280;62979;55.720;37.606;2023-06-10T07:30:12;100427.22;;;19.14;34.38
74561;BME280;62979;55.720;37.606;2023-06-10T07:32:39;100432.09;;;19.04;34.66
74561;BME280;62979;55.720;37.606;2023-06-10T07:35:08;100432.63;;;19.12;34.28
74561;BME280;62979;55.720;37.606;2023-06-10T07:37:36;100441.91;;;19.21;33.90
74561;BME280;62979;55.720;37.606;2023-06-10T07:40:05;100434.88;;;19.39;34.30
74561;BME280;62979;55.720;37.606;2023-06-10T07:42:35;100434.56;;;19.62;32.96
74561;BME280;62979;55.720;37.606;2023-06-10T07:45:03;100439.44;;;19.72;33.02
74561;BME280;62979;55.720;37.606;2023-06-10T07:47:32;100439.16;;;19.78;31.88
74561;BME280;62979;55.720;37.606;2023-06-10T07:50:00;100433.69;;;19.81;31.23
74561;BME280;62979;55.720;37.606;2023-06-10T07:52:27;100436.63;;;19.92;32.08
74561;BME280;62979;55.720;37.606;2023-06-10T07:54:55;100442.88;;;19.91;32.28
74561;BME280;62979;55.720;37.606;2023-06-10T07:57:23;100447.56;;;19.86;33.48
74561;BME280;62979;55.720;37.606;2023-06-10T07:59:50;100434.91;;;20.08;33.12
74561;BME280;62979;55.720;37.606;2023-06-10T08:02:17;100432.69;;;20.34;32.54
74561;BME280;62979;55.720;37.606;2023-06-10T08:04:44;100434.66;;;20.64;31.96
74561;BME280;62979;55.720;37.606;2023-06-10T08:07:11;100444.63;;;20.76;31.25
74561;BME280;62979;55.720;37.606;2023-06-10T08:09:38;100453.19;;;20.81;31.02
74561;BME280;62979;55.720;37.606;2023-06-10T08:12:06;100446.31;;;20.77;29.99
74561;BME280;62979;55.720;37.606;2023-06-10T08:14:35;100453.78;;;20.86;30.70
74561;BME280;62979;55.720;37.606;2023-06-10T08:17:03;100445.72;;;20.72;31.35
74561;BME280;62979;55.720;37.606;2023-06-10T08:19:31;100450.22;;;20.87;31.18
74561;BME280;62979;55.720;37.606;2023-06-10T08:21:59;100449.22;;;20.72;31.20
74561;BME280;62979;55.720;37.606;2023-06-10T08:24:25;100439.63;;;20.70;30.86
74561;BME280;62979;55.720;37.606;2023-06-10T08:26:53;100458.34;;;20.84;30.11
74561;BME280;62979;55.720;37.606;2023-06-10T08:29:20;100447.13;;;21.11;29.60
74561;BME280;62979;55.720;37.606;2023-06-10T08:31:49;100462.13;;;21.28;29.56
74561;BME280;62979;55.720;37.606;2023-06-10T08:34:16;100459.72;;;21.23;29.65
74561;BME280;62979;55.720;37.606;2023-06-10T08:36:43;100469.38;;;21.42;28.48
74561;BME280;62979;55.720;37.606;2023-06-10T08:39:10;100471.41;;;21.52;27.54
74561;BME280;62979;55.720;37.606;2023-06-10T08:41:42;100462.38;;;21.55;26.39
74561;BME280;62979;55.720;37.606;2023-06-10T08:44:16;100469.00;;;21.48;26.83
74561;BME280;62979;55.720;37.606;2023-06-10T08:49:18;100485.31;;;21.10;25.72
74561;BME280;62979;55.720;37.606;2023-06-10T08:51:50;100475.41;;;20.96;26.49
74561;BME280;62979;55.720;37.606;2023-06-10T08:54:21;100475.00;;;20.88;26.45
74561;BME280;62979;55.720;37.606;2023-06-10T08:56:51;100482.03;;;21.21;27.53
74561;BME280;62979;55.720;37.606;2023-06-10T08:59:21;100475.59;;;21.25;26.90
74561;BME280;62979;55.720;37.606;2023-06-10T09:01:50;100472.00;;;21.10;26.90
74561;BME280;62979;55.720;37.606;2023-06-10T09:04:18;100482.75;;;20.75;27.96
74561;BME280;62979;55.720;37.606;2023-06-10T09:06:45;100488.88;;;21.09;27.48
74561;BME280;62979;55.720;37.606;2023-06-10T09:09:15;100489.03;;;21.39;28.27
74561;BME280;62979;55.720;37.606;2023-06-10T09:11:43;100485.81;;;21.32;27.82
74561;BME280;62979;55.720;37.606;2023-06-10T09:14:10;100484.09;;;21.00;27.96
74561;BME280;62979;55.720;37.606;2023-06-10T09:16:38;100479.47;;;21.03;26.54
74561;BME280;62979;55.720;37.606;2023-06-10T09:19:09;100483.91;;;21.19;27.29
74561;BME280;62979;55.720;37.606;2023-06-10T09:21:37;100484.25;;;21.28;27.86
74561;BME280;62979;55.720;37.606;2023-06-10T09:24:05;100480.53;;;21.78;27.51
74561;BME280;62979;55.720;37.606;2023-06-10T09:26:32;100488.97;;;22.01;26.08
74561;BME280;62979;55.720;37.606;2023-06-10T09:29:03;100491.06;;;21.96;25.62
74561;BME280;62979;55.720;37.606;2023-06-10T09:31:31;100490.13;;;22.11;26.72
74561;BME280;62979;55.720;37.606;2023-06-10T09:34:10;100473.56;;;22.22;24.89
74561;BME280;62979;55.720;37.606;2023-06-10T09:36:39;100480.81;;;22.18;25.41
74561;BME280;62979;55.720;37.606;2023-06-10T09:39:14;100486.69;;;22.09;24.76
74561;BME280;62979;55.720;37.606;2023-06-10T09:41:43;100489.34;;;21.95;25.14
74561;BME280;62979;55.720;37.606;2023-06-10T09:44:14;100496.25;;;21.83;26.26
74561;BME280;62979;55.720;37.606;2023-06-10T09:46:45;100485.81;;;21.64;26.58
74561;BME280;62979;55.720;37.606;2023-06-10T09:49:15;100486.00;;;21.45;27.18
74561;BME280;62979;55.720;37.606;2023-06-10T09:51:49;100497.56;;;21.60;26.68
74561;BME280;62979;55.720;37.606;2023-06-10T09:54:18;100501.38;;;21.86;26.60
74561;BME280;62979;55.720;37.606;2023-06-10T09:56:46;100501.97;;;21.91;26.53
74561;BME280;62979;55.720;37.606;2023-06-10T09:59:14;100494.44;;;22.58;25.57
74561;BME280;62979;55.720;37.606;2023-06-10T10:01:41;100511.38;;;23.56;24.99
74561;BME280;62979;55.720;37.606;2023-06-10T10:04:08;100505.31;;;24.47;23.64
74561;BME280;62979;55.720;37.606;2023-06-10T10:06:37;100501.28;;;25.04;22.75
74561;BME280;62979;55.720;37.606;2023-06-10T10:09:06;100500.97;;;25.45;22.12
74561;BME280;62979;55.720;37.606;2023-06-10T10:11:34;100500.72;;;25.11;21.63
74561;BME280;62979;55.720;37.606;2023-06-10T10:14:04;100503.75;;;24.94;21.84
74561;BME280;62979;55.720;37.606;2023-06-10T10:16:35;100508.50;;;24.77;22.25
74561;BME280;62979;55.720;37.606;2023-06-10T10:19:10;100506.59;;;25.29;22.26
74561;BME280;62979;55.720;37.606;2023-06-10T10:21:49;100497.59;;;25.78;20.91
74561;BME280;62979;55.720;37.606;2023-06-10T10:24:21;100496.81;;;26.36;21.00
74561;BME280;62979;55.720;37.606;2023-06-10T10:26:54;100492.81;;;27.09;19.79
74561;BME280;62979;55.720;37.606;2023-06-10T10:29:30;100495.81;;;27.49;19.72
74561;BME280;62979;55.720;37.606;2023-06-10T10:32:03;100490.47;;;27.38;18.95
74561;BME280;62979;55.720;37.606;2023-06-10T10:34:39;100482.72;;;27.01;19.16
74561;BME280;62979;55.720;37.606;2023-06-10T10:37:19;100506.53;;;26.14;19.85
74561;BME280;62979;55.720;37.606;2023-06-10T10:39:47;100502.56;;;25.48;20.70
74561;BME280;62979;55.720;37.606;2023-06-10T10:42:16;100491.34;;;24.93;21.06
74561;BME280;62979;55.720;37.606;2023-06-10T10:44:44;100493.00;;;25.07;21.11
74561;BME280;62979;55.720;37.606;2023-06-10T10:47:13;100503.88;;;24.92;21.07
74561;BME280;62979;55.720;37.606;2023-06-10T10:49:43;100499.50;;;24.78;21.37
74561;BME280;62979;55.720;37.606;2023-06-10T10:52:14;100493.34;;;25.52;20.84
74561;BME280;62979;55.720;37.606;2023-06-10T10:54:46;100495.00;;;26.36;19.83
74561;BME280;62979;55.720;37.606;2023-06-10T10:57:14;100499.56;;;26.58;20.44
74561;BME280;62979;55.720;37.606;2023-06-10T10:59:45;100498.50;;;26.14;20.51
74561;BME280;62979;55.720;37.606;2023-06-10T11:02:17;100490.31;;;26.04;20.10
74561;BME280;62979;55.720;37.606;2023-06-10T11:04:46;100496.81;;;25.89;20.04
74561;BME280;62979;55.720;37.606;2023-06-10T11:07:14;100509.66;;;25.36;20.79
74561;BME280;62979;55.720;37.606;2023-06-10T11:10:05;100493.25;;;25.04;21.19
74561;BME280;62979;55.720;37.606;2023-06-10T11:12:41;100498.00;;;25.37;21.19
74561;BME280;62979;55.720;37.606;2023-06-10T11:15:22;100499.41;;;25.30;20.91
74561;BME280;62979;55.720;37.606;2023-06-10T11:18:10;100506.81;;;25.13;21.35
74561;BME280;62979;55.720;37.606;2023-06-10T11:20:44;100505.16;;;25.84;20.00
74561;BME280;62979;55.720;37.606;2023-06-10T11:23:32;100496.00;;;27.14;18.69
74561;BME280;62979;55.720;37.606;2023-06-10T11:26:21;100497.00;;;28.00;17.86
74561;BME280;62979;55.720;37.606;2023-06-10T11:29:07;100499.88;;;28.50;17.87
74561;BME280;62979;55.720;37.606;2023-06-10T11:31:44;100502.63;;;29.31;16.98
74561;BME280;62979;55.720;37.606;2023-06-10T11:34:15;100501.38;;;29.55;15.69
74561;BME280;62979;55.720;37.606;2023-06-10T11:36:49;100491.31;;;29.57;15.66
74561;BME280;62979;55.720;37.606;2023-06-10T11:39:17;100500.81;;;29.61;15.84
74561;BME280;62979;55.720;37.606;2023-06-10T11:41:48;100501.41;;;29.05;16.54
74561;BME280;62979;55.720;37.606;2023-06-10T11:44:17;100495.22;;;28.10;17.38
74561;BME280;62979;55.720;37.606;2023-06-10T11:46:44;100516.00;;;27.32;17.52
74561;BME280;62979;55.720;37.606;2023-06-10T11:49:11;100509.38;;;26.35;18.39
74561;BME280;62979;55.720;37.606;2023-06-10T11:51:40;100502.13;;;25.78;19.01
74561;BME280;62979;55.720;37.606;2023-06-10T11:54:14;100511.19;;;25.64;19.17
74561;BME280;62979;55.720;37.606;2023-06-10T11:56:42;100513.69;;;26.02;19.09
74561;BME280;62979;55.720;37.606;2023-06-10T11:59:11;100520.19;;;25.87;18.82
74561;BME280;62979;55.720;37.606;2023-06-10T12:01:42;100501.53;;;25.37;19.62
74561;BME280;62979;55.720;37.606;2023-06-10T12:04:12;100508.31;;;25.30;19.42
74561;BME280;62979;55.720;37.606;2023-06-10T12:06:42;100498.56;;;25.16;19.82
74561;BME280;62979;55.720;37.606;2023-06-10T12:09:15;100510.47;;;25.12;19.19
74561;BME280;62979;55.720;37.606;2023-06-10T12:11:44;100512.75;;;24.93;19.59
74561;BME280;62979;55.720;37.606;2023-06-10T12:14:14;100510.84;;;24.95;19.94
74561;BME280;62979;55.720;37.606;2023-06-10T12:16:48;100510.19;;;25.17;19.06
74561;BME280;62979;55.720;37.606;2023-06-10T12:19:15;100500.28;;;25.30;19.66
74561;BME280;62979;55.720;37.606;2023-06-10T12:21:42;100502.38;;;25.38;19.45
74561;BME280;62979;55.720;37.606;2023-06-10T12:24:11;100505.63;;;25.78;19.11
74561;BME280;62979;55.720;37.606;2023-06-10T12:26:42;100506.16;;;26.54;18.98
74561;BME280;62979;55.720;37.606;2023-06-10T12:29:22;100504.44;;;26.76;18.12
74561;BME280;62979;55.720;37.606;2023-06-10T12:32:08;100501.88;;;26.74;18.38
74561;BME280;62979;55.720;37.606;2023-06-10T12:34:39;100504.59;;;26.27;18.91
74561;BME280;62979;55.720;37.606;2023-06-10T12:37:10;100506.16;;;26.08;19.14
74561;BME280;62979;55.720;37.606;2023-06-10T12:39:39;100501.28;;;25.53;19.31
74561;BME280;62979;55.720;37.606;2023-06-10T12:42:08;100506.88;;;25.37;20.11
74561;BME280;62979;55.720;37.606;2023-06-10T12:44:39;100506.53;;;25.05;20.34
74561;BME280;62979;55.720;37.606;2023-06-10T12:47:07;100496.22;;;25.25;20.31
74561;BME280;62979;55.720;37.606;2023-06-10T12:49:36;100518.72;;;26.54;19.49
74561;BME280;62979;55.720;37.606;2023-06-10T12:52:04;100508.91;;;26.41;19.03